Time;durP1;ratioP1;P1;durP2;ratioP2;P2;SDS_P1;SDS_P2;PMS_P1;PMS_P2;Temp;Humidity;BMP_temperature;BMP_pressure;BME280_temperature;BME280_humidity;BME280_pressure;Samples;Min_cycle;Max_cycle;Signal;HPM_P1;HPM_P2
2023/04/23 00:00:14;;;;;;;31.98;14.13;;;10.30;99.90;;;9.02;73.05;100297.06;4981486;28;20117;-78
2023/04/23 00:02:45;;;;;;;18.17;10.80;;;10.20;99.90;;;9.01;73.50;100286.66;4965880;28;20034;-78
2023/04/23 00:05:12;;;;;;;20.80;11.30;;;10.20;99.90;;;8.95;73.43;100290.41;4965532;28;20041;-77
2023/04/23 00:07:43;;;;;;;18.20;11.13;;;10.20;99.90;;;8.94;73.34;100291.34;4932022;28;20037;-77
2023/04/23 00:10:10;;;;;;;18.63;11.05;;;10.10;99.90;;;8.90;73.49;100281.91;4945886;28;20584;-78
2023/04/23 00:12:36;;;;;;;20.50;10.48;;;10.10;99.90;;;8.80;74.08;100275.38;4957755;28;20041;-78
2023/04/23 00:15:04;;;;;;;23.30;11.82;;;10.00;99.90;;;8.78;74.25;100272.81;4949737;28;20498;-78
2023/04/23 00:17:30;;;;;;;18.58;9.75;;;10.00;99.90;;;8.71;74.57;100266.16;4962967;28;20054;-78
2023/04/23 00:19:58;;;;;;;18.48;10.40;;;9.90;99.90;;;8.65;74.67;100260.31;4933903;28;20177;-78
2023/04/23 00:22:24;;;;;;;19.73;10.27;;;9.90;99.90;;;8.61;74.73;100254.34;4975814;28;20580;-77
2023/04/23 00:24:49;;;;;;;24.10;11.55;;;9.80;99.90;;;8.55;75.26;100252.00;4953540;28;20046;-78
2023/04/23 00:27:16;;;;;;;33.80;12.75;;;9.80;99.90;;;8.50;75.49;100243.50;4965271;28;20541;-77
2023/04/23 00:29:42;;;;;;;19.88;10.18;;;9.70;99.90;;;8.47;75.66;100239.25;4960874;28;20614;-77
2023/04/23 00:32:13;;;;;;;20.48;9.75;;;9.70;99.90;;;8.47;74.97;100238.41;4961703;28;20041;-78
2023/04/23 00:34:39;;;;;;;20.90;11.38;;;9.70;99.90;;;8.44;75.11;100226.25;4962248;28;20403;-77
2023/04/23 00:37:06;;;;;;;25.30;12.30;;;9.80;99.90;;;8.57;75.05;100230.06;4942396;28;20023;-78
2023/04/23 00:39:32;;;;;;;20.92;10.32;;;9.80;99.90;;;8.61;74.78;100228.13;4981276;28;20034;-77
2023/04/23 00:42:05;;;;;;;17.35;10.50;;;9.90;99.90;;;8.61;74.29;100220.25;4969005;28;20109;-79
2023/04/23 00:44:31;;;;;;;20.75;11.32;;;9.80;99.90;;;8.56;75.12;100217.84;4959944;28;20518;-77
2023/04/23 00:46:59;;;;;;;21.48;10.68;;;9.80;99.90;;;8.60;74.53;100218.56;4938498;28;20026;-77
2023/04/23 00:49:25;;;;;;;19.95;10.18;;;9.90;99.90;;;8.67;74.29;100212.09;4968686;28;20564;-77
2023/04/23 00:51:51;;;;;;;22.73;11.30;;;9.90;99.90;;;8.73;74.31;100211.81;4958879;28;20061;-78
2023/04/23 00:54:26;;;;;;;19.60;11.35;;;10.00;99.90;;;8.75;73.75;100207.34;4969903;28;20129;-77
2023/04/23 00:56:54;;;;;;;16.80;10.13;;;10.00;99.90;;;8.80;73.64;100200.06;4989589;28;20526;-77
2023/04/23 00:59:20;;;;;;;24.17;11.85;;;10.00;99.90;;;8.86;73.45;100200.72;4970869;28;20281;-78
2023/04/23 01:01:51;;;;;;;21.52;11.43;;;10.10;99.90;;;8.91;73.36;100193.47;4918796;28;20034;-78
2023/04/23 01:04:18;;;;;;;53.50;29.48;;;10.20;99.90;;;8.97;72.74;100196.66;4966697;28;20072;-77
2023/04/23 01:06:48;;;;;;;34.08;17.27;;;10.20;99.90;;;9.06;72.88;100197.97;4982671;28;20043;-77
2023/04/23 01:09:18;;;;;;;22.73;10.77;;;10.20;99.90;;;9.10;73.05;100199.53;4962851;28;20046;-77
2023/04/23 01:11:45;;;;;;;15.23;9.30;;;10.30;99.90;;;9.17;72.63;100206.19;4948340;28;20473;-77
2023/04/23 01:14:11;;;;;;;18.80;9.07;;;10.30;99.90;;;9.18;72.40;100196.53;4946525;28;20034;-77
2023/04/23 01:16:37;;;;;;;14.15;8.98;;;10.40;99.90;;;9.23;72.20;100195.38;4953949;28;20098;-78
2023/04/23 01:19:11;;;;;;;18.85;9.30;;;10.40;99.90;;;9.23;72.35;100197.16;4970284;28;20137;-76
2023/04/23 01:21:40;;;;;;;23.55;9.98;;;10.40;99.90;;;9.24;72.23;100186.56;4942271;28;20030;-79
2023/04/23 01:24:07;;;;;;;20.45;9.15;;;10.40;99.90;;;9.23;72.47;100186.66;4937346;28;20081;-78
2023/04/23 01:26:34;;;;;;;19.98;9.85;;;10.30;99.90;;;9.19;72.57;100185.94;4917576;28;20042;-80
2023/04/23 01:29:02;;;;;;;23.55;8.93;;;10.30;99.90;;;9.19;71.94;100185.09;4966309;28;20046;-79
2023/04/23 01:31:29;;;;;;;17.42;11.05;;;10.30;99.90;;;9.14;72.61;100180.06;4937657;28;20529;-79
2023/04/23 01:33:56;;;;;;;18.15;10.02;;;10.30;99.90;;;9.04;73.01;100184.91;4930907;28;20125;-78
2023/04/23 01:36:24;;;;;;;14.85;9.50;;;10.20;99.90;;;8.97;73.32;100185.31;4948518;28;20062;-78
2023/04/23 01:38:55;;;;;;;24.92;9.77;;;10.20;99.90;;;8.92;73.76;100184.66;4944609;28;20046;-78
2023/04/23 01:41:21;;;;;;;16.30;9.85;;;10.20;99.90;;;8.88;74.30;100178.72;4940386;28;20042;-80
2023/04/23 01:43:47;;;;;;;15.15;9.50;;;10.10;99.90;;;8.94;74.08;100182.81;4958059;28;20035;-79
2023/04/23 01:46:13;;;;;;;19.50;9.82;;;10.20;99.90;;;8.96;73.59;100184.47;4976851;28;20044;-78
2023/04/23 01:48:40;;;;;;;16.98;9.85;;;10.20;99.90;;;8.97;73.38;100180.06;4959587;28;20038;-79
2023/04/23 01:51:13;;;;;;;15.98;9.75;;;10.20;99.90;;;9.01;73.34;100185.06;4960559;28;20046;-79
2023/04/23 01:53:38;;;;;;;19.67;10.43;;;10.20;99.90;;;9.00;73.37;100179.88;4974137;28;20034;-80
2023/04/23 01:56:05;;;;;;;22.02;10.68;;;10.10;99.90;;;8.97;73.80;100177.44;4948611;28;20421;-78
2023/04/23 01:58:31;;;;;;;18.77;9.18;;;10.10;99.90;;;8.87;73.61;100171.75;4968233;28;20689;-80
2023/04/23 02:01:03;;;;;;;16.92;9.73;;;10.00;99.90;;;8.81;73.87;100174.66;4960575;28;20039;-79
2023/04/23 02:03:29;;;;;;;18.83;10.38;;;10.00;99.90;;;8.68;74.93;100165.69;4954288;28;20023;-79
2023/04/23 02:05:57;;;;;;;15.45;9.88;;;9.90;99.90;;;8.57;75.47;100169.69;4973071;28;20873;-79
2023/04/23 02:08:25;;;;;;;18.38;10.35;;;9.80;99.90;;;8.53;75.54;100164.63;4965179;28;20427;-80
2023/04/23 02:10:53;;;;;;;18.30;10.80;;;9.70;99.90;;;8.47;75.27;100159.69;4951781;28;20104;-79
2023/04/23 02:13:19;;;;;;;15.82;10.57;;;9.70;99.90;;;8.41;75.69;100163.44;4944174;28;20039;-80
2023/04/23 02:15:45;;;;;;;19.55;11.13;;;9.60;99.90;;;8.39;75.68;100166.09;4949307;28;20050;-79
2023/04/23 02:18:11;;;;;;;21.05;11.32;;;9.50;99.90;;;8.36;75.13;100174.13;4951864;28;20038;-79
2023/04/23 02:20:39;;;;;;;15.77;10.60;;;9.50;99.90;;;8.28;76.01;100164.91;4956475;28;20070;-79
2023/04/23 02:23:12;;;;;;;20.98;11.55;;;9.40;99.90;;;8.22;75.79;100160.78;4959138;28;20037;-78
2023/04/23 02:25:38;;;;;;;20.63;11.75;;;9.40;99.90;;;8.12;76.40;100162.13;4962051;28;20169;-79
2023/04/23 02:28:06;;;;;;;17.05;11.60;;;9.30;99.90;;;8.06;77.06;100165.03;4957769;28;20049;-78
2023/04/23 02:30:44;;;;;;;21.45;10.43;;;9.30;99.90;;;7.92;78.15;100166.50;4946209;28;20041;-78
2023/04/23 02:33:10;;;;;;;16.27;10.60;;;9.20;99.90;;;7.89;78.53;100163.16;4922532;28;20519;-79
2023/04/23 02:35:36;;;;;;;18.77;10.82;;;9.20;99.90;;;7.92;79.00;100160.41;4940181;28;20072;-80
2023/04/23 02:38:07;;;;;;;18.52;10.77;;;9.20;99.90;;;7.98;78.87;100165.38;4938228;28;20511;-80
2023/04/23 02:40:33;;;;;;;18.50;9.93;;;9.30;99.90;;;8.11;78.21;100160.44;4921319;28;20034;-79
2023/04/23 02:42:59;;;;;;;22.73;11.07;;;9.30;99.90;;;8.21;78.11;100164.34;4935573;28;20132;-79
2023/04/23 02:45:25;;;;;;;19.52;11.02;;;9.40;99.90;;;8.31;78.79;100167.38;4939851;28;20223;-78
2023/04/23 02:47:52;;;;;;;19.10;9.88;;;9.50;99.90;;;8.43;78.55;100163.38;4902467;28;20059;-80
2023/04/23 02:50:22;;;;;;;19.27;9.77;;;9.70;99.90;;;8.58;77.97;100158.25;4932750;28;20041;-79
2023/04/23 02:52:48;;;;;;;23.27;10.88;;;9.80;99.90;;;8.74;77.46;100161.00;4924276;28;20041;-79
2023/04/23 02:55:15;;;;;;;17.50;10.02;;;;;;;8.86;77.46;100163.97;4966442;28;20033;-79
2023/04/23 02:57:41;;;;;;;22.70;10.98;;;10.00;99.90;;;8.89;77.67;100155.94;4960822;28;20049;-79
2023/04/23 03:00:13;;;;;;;18.33;10.85;;;10.10;99.90;;;8.95;77.90;100156.47;4942459;28;20038;-79
2023/04/23 03:02:39;;;;;;;35.30;10.10;;;10.10;99.90;;;8.99;77.42;100157.19;4927267;28;20046;-79
2023/04/23 03:05:06;;;;;;;21.35;9.73;;;10.20;99.90;;;9.06;77.31;100153.34;4935598;28;20034;-78
2023/04/23 03:07:32;;;;;;;15.60;10.63;;;10.30;99.90;;;9.13;77.33;100162.59;4952840;28;20121;-78
2023/04/23 03:09:58;;;;;;;15.40;10.02;;;10.30;99.90;;;9.26;76.92;100164.63;4965905;28;20503;-79
2023/04/23 03:12:23;;;;;;;16.73;10.90;;;10.40;99.90;;;9.35;76.61;100161.53;4954719;28;20057;-78
2023/04/23 03:14:57;;;;;;;17.00;10.40;;;10.50;99.90;;;9.33;76.93;100158.13;4936702;28;20042;-79
2023/04/23 03:17:22;;;;;;;16.92;10.45;;;10.50;99.90;;;9.39;76.51;100161.28;4924455;28;20050;-78
2023/04/23 03:19:48;;;;;;;22.55;10.05;;;10.60;99.90;;;9.47;76.00;100163.53;4966668;28;20046;-79
2023/04/23 03:22:14;;;;;;;14.00;9.15;;;10.60;99.90;;;9.57;75.31;100161.31;4929313;28;20127;-78
2023/04/23 03:24:40;;;;;;;17.02;10.02;;;10.70;99.90;;;9.63;75.42;100161.84;4956800;28;20093;-79
2023/04/23 03:27:10;;;;;;;16.42;10.18;;;10.80;99.90;;;9.74;75.41;100170.94;4929021;28;20038;-79
2023/04/23 03:29:36;;;;;;;16.90;10.48;;;10.90;99.90;;;9.77;75.04;100171.63;4963101;28;20042;-79
2023/04/23 03:32:02;;;;;;;16.48;9.93;;;10.90;99.90;;;9.84;74.88;100169.53;4970679;28;20034;-78
2023/04/23 03:34:28;;;;;;;16.55;9.82;;;11.00;99.90;;;9.86;74.70;100165.88;4958016;28;20565;-80
2023/04/23 03:36:54;;;;;;;20.38;10.60;;;11.00;99.90;;;9.92;74.94;100169.97;4963804;28;20048;-78
2023/04/23 03:39:29;;;;;;;17.60;9.52;;;11.00;99.90;;;9.95;75.04;100167.16;4960870;28;20706;-77
2023/04/23 03:41:55;;;;;;;23.50;10.70;;;11.10;99.90;;;9.98;74.98;100171.44;4942651;28;20042;-76
2023/04/23 03:44:20;;;;;;;21.10;10.63;;;11.10;99.90;;;10.05;75.52;100164.91;4930257;28;20435;-77
2023/04/23 03:46:46;;;;;;;18.98;10.30;;;11.20;99.90;;;10.12;75.08;100168.91;4939328;28;20121;-76
2023/04/23 03:49:19;;;;;;;20.35;10.20;;;11.20;99.90;;;10.13;75.27;100160.09;4944155;28;20526;-76
2023/04/23 03:51:45;;;;;;;19.35;10.30;;;11.20;99.90;;;10.20;74.99;100150.09;4938212;28;20040;-76
2023/04/23 03:54:11;;;;;;;22.80;10.63;;;11.30;99.90;;;10.27;74.93;100165.44;4970230;28;20496;-77
2023/04/23 03:56:37;;;;;;;15.30;9.55;;;11.40;99.90;;;10.34;74.79;100154.63;4960000;28;20035;-76
2023/04/23 03:59:02;;;;;;;21.98;10.52;;;11.40;99.90;;;10.40;74.48;100164.81;4933149;28;20042;-76
2023/04/23 04:01:35;;;;;;;18.50;10.02;;;11.50;99.90;;;10.41;74.80;100169.13;4969210;28;20046;-78
2023/04/23 04:04:01;;;;;;;16.67;9.95;;;11.50;99.90;;;10.47;74.80;100171.44;4942592;28;20036;-77
2023/04/23 04:06:27;;;;;;;22.20;10.10;;;11.50;99.90;;;10.47;75.67;100166.16;4959836;28;20092;-77
2023/04/23 04:08:53;;;;;;;14.18;9.65;;;11.60;99.90;;;10.49;75.30;100163.47;4958298;28;20108;-77
2023/04/23 04:11:19;;;;;;;19.48;10.52;;;11.60;99.90;;;10.54;75.21;100162.28;4948641;28;20027;-76
2023/04/23 04:13:52;;;;;;;25.67;11.10;;;11.60;99.90;;;10.60;75.64;100156.66;4929679;28;20128;-76
2023/04/23 04:16:18;;;;;;;18.33;11.10;;;11.60;99.90;;;10.59;76.24;100167.28;4976417;28;20038;-76
2023/04/23 04:18:44;;;;;;;16.30;10.18;;;11.60;99.90;;;10.60;75.73;100153.19;4954571;28;20096;-76
2023/04/23 04:21:10;;;;;;;18.33;11.00;;;11.70;99.90;;;10.61;75.99;100147.84;4976449;28;20109;-77
2023/04/23 04:23:36;;;;;;;21.42;10.38;;;11.70;99.90;;;10.64;75.83;100170.50;4948080;28;20046;-76
2023/04/23 04:26:11;;;;;;;18.20;10.20;;;11.70;99.90;;;10.63;75.92;100161.78;4940407;28;20043;-77
2023/04/23 04:28:38;;;;;;;19.45;10.32;;;11.70;99.90;;;10.64;76.02;100168.72;4959477;28;20086;-77
2023/04/23 04:31:05;;;;;;;22.20;10.55;;;11.70;99.90;;;10.64;76.06;100179.25;4935589;28;20046;-77
2023/04/23 04:33:35;;;;;;;17.90;10.48;;;11.70;99.90;;;10.64;76.39;100173.13;4936264;28;20129;-77
2023/04/23 04:36:01;;;;;;;15.95;10.40;;;11.70;99.90;;;10.69;76.66;100173.75;4939434;28;20555;-77
2023/04/23 04:38:28;;;;;;;20.73;11.30;;;11.70;99.90;;;10.71;76.89;100165.75;4982369;28;20026;-76
2023/04/23 04:40:57;;;;;;;16.45;11.00;;;11.80;99.90;;;10.72;77.89;100173.56;4953225;28;20030;-76
2023/04/23 04:43:26;;;;;;;23.63;11.88;;;11.70;99.90;;;10.56;79.92;100160.41;4954285;28;20042;-78
2023/04/23 04:45:52;;;;;;;18.92;12.43;;;11.70;99.90;;;10.57;81.41;100163.91;4924107;28;20069;-77
2023/04/23 04:48:18;;;;;;;19.20;11.68;;;11.70;99.90;;;10.56;81.72;100155.16;4965740;28;20050;-78
2023/04/23 04:50:45;;;;;;;27.45;12.68;;;11.70;99.90;;;10.60;81.80;100166.34;4966597;28;20105;-77
2023/04/23 04:53:11;;;;;;;15.93;11.82;;;11.70;99.90;;;10.56;82.17;100164.81;4960667;28;20092;-77
2023/04/23 04:55:40;;;;;;;23.48;12.15;;;11.70;99.90;;;10.59;82.56;100162.88;4944393;28;20042;-77
2023/04/23 04:58:06;;;;;;;17.23;11.52;;;11.70;99.90;;;10.64;82.82;100160.81;4935530;28;20038;-77
2023/04/23 05:00:32;;;;;;;18.90;12.13;;;11.70;99.90;;;10.75;82.03;100159.38;4959943;28;20529;-77
2023/04/23 05:02:58;;;;;;;18.92;11.70;;;11.80;99.90;;;10.83;81.65;100155.38;4949563;28;20450;-77
2023/04/23 05:05:25;;;;;;;21.02;13.02;;;11.80;99.90;;;10.94;81.26;100154.75;4949334;28;20509;-76
2023/04/23 05:07:53;;;;;;;18.27;11.55;;;11.90;99.90;;;11.04;81.04;100163.00;4975017;28;20038;-77
2023/04/23 05:10:19;;;;;;;22.88;11.63;;;12.00;99.90;;;11.14;80.39;100160.66;4974161;28;20046;-76
2023/04/23 05:12:46;;;;;;;18.05;11.68;;;12.10;99.90;;;11.21;80.90;100160.25;4940807;28;20033;-77
2023/04/23 05:15:13;;;;;;;20.17;12.15;;;12.10;99.90;;;11.28;81.90;100164.19;4973384;28;20052;-77
2023/04/23 05:17:40;;;;;;;17.80;12.45;;;12.20;99.90;;;11.37;82.03;100160.19;4975254;28;20085;-76
2023/04/23 05:20:13;;;;;;;19.98;11.05;;;12.40;99.90;;;11.55;81.17;100163.50;4941134;28;20043;-76
2023/04/23 05:22:40;;;;;;;27.42;10.68;;;12.50;99.90;;;11.75;79.39;100158.81;4963223;28;20033;-77
2023/04/23 05:25:08;;;;;;;16.17;11.07;;;12.60;99.90;;;11.92;78.56;100166.59;4963815;28;20046;-76
2023/04/23 05:27:34;;;;;;;18.05;11.25;;;12.80;99.90;;;12.01;78.59;100168.69;4944689;28;20390;-76
2023/04/23 05:30:04;;;;;;;18.02;10.75;;;12.90;99.90;;;12.17;77.99;100170.38;4949161;28;20561;-76
2023/04/23 05:32:30;;;;;;;16.38;11.27;;;13.00;99.90;;;12.28;77.53;100170.53;4922449;28;20030;-77
2023/04/23 05:34:56;;;;;;;14.52;10.82;;;13.10;99.90;;;12.31;78.46;100168.56;4949488;28;20408;-76
2023/04/23 05:37:22;;;;;;;23.92;11.13;;;13.20;99.90;;;12.44;77.18;100163.38;4952587;28;20057;-77
2023/04/23 05:39:48;;;;;;;21.90;11.30;;;13.30;99.90;;;12.58;76.93;100166.91;4990586;28;20124;-76
2023/04/23 05:42:13;;;;;;;17.58;11.63;;;13.40;99.90;;;12.70;77.04;100166.16;4969044;28;20117;-77
2023/04/23 05:44:40;;;;;;;18.33;11.30;;;13.50;99.90;;;12.80;77.15;100164.56;4948618;28;20042;-77
2023/04/23 05:47:09;;;;;;;18.65;11.60;;;13.60;99.90;;;12.94;76.71;100166.34;4984392;28;20164;-77
2023/04/23 05:49:36;;;;;;;15.32;11.00;;;13.70;99.90;;;13.02;76.69;100157.91;4957820;28;20038;-77
2023/04/23 05:52:02;;;;;;;18.67;12.13;;;13.80;99.90;;;12.97;76.58;100160.00;4935709;28;20037;-77
2023/04/23 05:54:28;;;;;;;22.50;11.23;;;13.80;99.90;;;13.02;76.78;100148.16;4958873;28;20029;-77
2023/04/23 05:56:54;;;;;;;18.90;10.70;;;13.90;99.90;;;13.09;76.98;100160.03;4966283;28;20470;-77
2023/04/23 05:59:22;;;;;;;19.73;11.65;;;13.90;99.90;;;13.18;76.18;100166.53;4959196;28;20437;-76
2023/04/23 06:01:52;;;;;;;14.70;10.93;;;13.90;99.90;;;13.23;75.86;100166.22;4951700;28;20370;-77
2023/04/23 06:04:18;;;;;;;17.92;11.98;;;14.00;99.90;;;13.13;76.81;100166.81;4983710;28;20095;-76
2023/04/23 06:06:43;;;;;;;24.13;12.50;;;14.10;99.90;;;13.21;77.54;100168.94;4932558;28;20046;-76
2023/04/23 06:09:10;;;;;;;17.55;12.00;;;;;;;13.12;78.61;100162.47;4969366;28;20453;-77
2023/04/23 06:11:36;;;;;;;23.25;12.18;;;14.10;99.90;;;13.29;78.55;100174.59;4927476;28;20036;-77
2023/04/23 06:14:07;;;;;;;20.65;12.75;;;14.20;99.90;;;13.35;78.67;100173.38;4923800;28;20030;-77
2023/04/23 06:16:32;;;;;;;23.20;12.05;;;14.30;99.90;;;13.43;78.53;100175.47;4944298;28;20026;-77
2023/04/23 06:18:58;;;;;;;18.40;11.60;;;14.30;99.90;;;13.52;78.18;100172.22;4958631;28;20041;-77
2023/04/23 06:21:26;;;;;;;23.10;11.57;;;14.40;99.90;;;13.64;78.03;100178.47;4949895;28;20049;-77
2023/04/23 06:23:52;;;;;;;18.85;10.82;;;14.50;99.90;;;13.89;76.82;100178.50;4969117;28;20050;-78
2023/04/23 06:26:27;;;;;;;16.73;11.15;;;14.70;99.90;;;14.20;75.45;100184.28;4937613;28;20038;-77
2023/04/23 06:28:52;;;;;;;18.92;11.48;;;14.90;99.90;;;14.39;74.71;100185.66;4950838;28;20050;-77
2023/04/23 06:31:18;;;;;;;18.15;11.80;;;15.10;99.90;;;14.47;74.35;100193.88;4937938;28;20097;-77
2023/04/23 06:33:44;;;;;;;16.95;10.70;;;15.20;99.90;;;14.54;74.10;100179.25;4963132;28;20635;-77
2023/04/23 06:36:13;;;;;;;16.65;10.18;;;15.20;99.90;;;14.54;73.44;100184.56;4989774;28;20169;-77
2023/04/23 06:38:40;;;;;;;20.60;10.50;;;15.20;99.90;;;14.46;73.47;100181.59;4953583;28;20047;-77
2023/04/23 06:41:06;;;;;;;20.45;11.13;;;15.30;99.90;;;14.44;73.15;100191.44;4985536;28;20099;-77
2023/04/23 06:43:32;;;;;;;16.73;10.68;;;15.30;99.90;;;14.45;73.55;100191.34;4958424;28;20034;-77
2023/04/23 06:45:57;;;;;;;23.15;10.77;;;15.30;99.90;;;14.53;73.89;100193.44;4972529;28;20034;-77
2023/04/23 06:48:25;;;;;;;17.30;10.57;;;15.40;99.90;;;14.70;73.48;100185.16;4930657;28;20101;-77
2023/04/23 06:50:53;;;;;;;18.75;11.00;;;15.50;99.90;;;14.90;73.66;100186.38;4934229;28;20120;-78
2023/04/23 06:53:19;;;;;;;15.50;10.65;;;15.70;99.90;;;15.10;72.91;100187.53;4955475;28;20035;-77
2023/04/23 06:55:45;;;;;;;19.17;10.50;;;15.80;99.90;;;15.25;72.98;100198.81;4961674;28;20041;-78
2023/04/23 06:58:11;;;;;;;15.90;10.88;;;15.90;99.90;;;15.31;72.37;100206.34;4969130;28;20060;-77
2023/04/23 07:00:37;;;;;;;19.55;11.27;;;16.00;99.90;;;15.38;72.75;100194.28;4958050;28;20034;-77
2023/04/23 07:03:03;;;;;;;16.17;10.65;;;16.10;99.90;;;15.42;72.92;100199.34;4942035;28;20026;-77
2023/04/23 07:05:28;;;;;;;18.33;10.40;;;16.20;99.90;;;15.47;72.39;100199.88;4930528;28;20041;-77
2023/04/23 07:08:01;;;;;;;18.20;10.65;;;16.20;99.90;;;15.54;72.62;100195.78;4925307;28;20050;-78
2023/04/23 07:10:27;;;;;;;16.55;11.20;;;16.30;99.90;;;15.55;72.39;100187.72;4977309;28;20049;-77
2023/04/23 07:12:53;;;;;;;14.05;10.70;;;16.30;99.90;;;15.59;72.61;100190.97;4955934;28;20042;-77
2023/04/23 07:15:19;;;;;;;19.02;10.75;;;16.30;99.90;;;15.59;72.29;100196.25;4955810;28;20030;-77
2023/04/23 07:17:47;;;;;;;;;;;16.30;99.90;;;15.53;72.86;100196.75;4949013;28;20672;-77
2023/04/23 07:20:13;;;;;;;14.52;10.00;;;16.30;99.90;;;15.46;73.48;100195.50;4974608;28;19917;-77
2023/04/23 07:22:39;;;;;;;18.17;10.68;;;16.20;99.90;;;15.37;73.90;100197.03;4913603;28;20026;-77
2023/04/23 07:25:07;;;;;;;20.90;9.90;;;16.20;99.90;;;15.28;74.79;100195.94;4959968;28;20030;-77
2023/04/23 07:27:33;;;;;;;17.60;10.07;;;16.10;99.90;;;15.22;75.49;100196.38;4978509;28;20042;-77
2023/04/23 07:30:00;;;;;;;15.88;10.18;;;16.00;99.90;;;15.15;75.88;100200.47;4938586;28;20117;-78
2023/04/23 07:32:34;;;;;;;16.33;8.90;;;16.00;99.90;;;15.09;76.07;100196.44;4952239;28;20122;-77
2023/04/23 07:34:59;;;;;;;16.75;10.25;;;15.90;99.90;;;15.06;76.41;100209.09;4945255;28;20046;-77
2023/04/23 07:37:25;;;;;;;16.80;10.57;;;15.90;99.90;;;15.02;76.65;100202.34;4960452;28;20408;-77
2023/04/23 07:39:52;;;;;;;16.02;11.02;;;15.80;99.90;;;14.96;77.36;100207.09;4958204;28;20031;-77
2023/04/23 07:42:24;;;;;;;17.92;11.60;;;15.80;99.90;;;14.85;77.72;100201.75;4998598;28;20179;-77
2023/04/23 07:44:49;;;;;;;18.55;12.65;;;15.70;99.90;;;14.75;78.76;100195.41;4943274;28;20063;-76
2023/04/23 07:47:15;;;;;;;18.05;11.95;;;15.70;99.90;;;14.70;78.73;100198.41;4976256;28;20045;-76
2023/04/23 07:49:41;;;;;;;14.57;12.13;;;15.60;99.90;;;14.64;79.36;100200.66;4962903;28;20510;-76
2023/04/23 07:52:07;;;;;;;15.82;11.88;;;15.50;99.90;;;14.57;80.13;100201.09;4984915;28;20705;-76
2023/04/23 07:54:38;;;;;;;16.63;11.65;;;15.50;99.90;;;14.53;80.96;100207.53;4972082;28;20103;-76
2023/04/23 07:57:04;;;;;;;17.60;12.90;;;15.40;99.90;;;14.53;81.04;100212.81;4956015;28;20058;-77
2023/04/23 07:59:30;;;;;;;20.05;12.18;;;15.40;99.90;;;14.50;81.74;100202.47;4985204;28;20218;-77
2023/04/23 08:01:56;;;;;;;16.98;11.95;;;15.40;99.90;;;14.51;82.08;100208.59;4946103;28;20056;-77
2023/04/23 08:04:21;;;;;;;18.08;11.80;;;15.40;99.90;;;14.50;82.21;100194.50;4998126;28;20034;-77
2023/04/23 08:06:47;;;;;;;16.13;10.65;;;15.40;99.90;;;14.52;82.69;100197.91;4950772;28;20121;-77
2023/04/23 08:09:13;;;;;;;15.20;10.93;;;15.40;99.90;;;14.55;82.57;100196.84;4975860;28;20058;-77
2023/04/23 08:11:40;;;;;;;14.80;10.05;;;15.40;99.90;;;14.59;82.37;100197.50;4941386;28;20053;-77
2023/04/23 08:14:06;;;;;;;21.23;11.10;;;15.40;99.90;;;14.61;82.36;100185.81;4938258;28;20077;-77
2023/04/23 08:16:32;;;;;;;17.20;11.25;;;15.40;99.90;;;14.63;82.97;100183.91;4939212;28;20467;-77
2023/04/23 08:18:58;;;;;;;18.58;11.32;;;15.40;99.90;;;14.70;83.45;100174.56;4910366;28;20176;-77
2023/04/23 08:21:25;;;;;;;23.15;12.48;;;15.50;99.90;;;14.71;84.58;100170.97;4942422;28;20038;-77
2023/04/23 08:23:51;;;;;;;17.00;12.35;;;15.50;99.90;;;14.74;84.92;100172.53;4974238;28;20041;-77
2023/04/23 08:26:20;;;;;;;19.02;12.15;;;15.50;99.90;;;14.81;84.68;100186.19;4982898;28;20044;-76
2023/04/23 08:28:46;;;;;;;18.73;12.13;;;15.60;99.90;;;14.79;84.37;100190.75;4958029;28;20031;-76
2023/04/23 08:31:13;;;;;;;16.70;12.73;;;15.60;99.90;;;14.81;83.96;100194.97;4990820;28;20763;-76
2023/04/23 08:33:39;;;;;;;22.27;13.10;;;15.60;99.90;;;14.80;84.31;100188.00;4974602;28;20116;-77
2023/04/23 08:36:05;;;;;;;18.88;13.32;;;15.60;99.90;;;14.81;84.10;100202.09;4934703;28;20050;-76
2023/04/23 08:38:31;;;;;;;16.88;12.48;;;15.60;99.90;;;14.77;84.48;100204.97;4976456;28;20044;-76
2023/04/23 08:41:00;;;;;;;20.30;14.38;;;15.60;99.90;;;14.76;84.93;100210.38;4984516;28;20049;-77
2023/04/23 08:43:42;;;;;;;17.77;13.48;;;15.50;99.90;;;14.70;85.39;100206.34;4932175;28;20533;-76
2023/04/23 08:46:13;;;;;;;19.92;14.35;;;15.50;99.90;;;14.67;85.44;100206.59;4960271;28;21974;-76
2023/04/23 08:48:48;;;;;;;17.60;14.13;;;15.50;99.90;;;14.64;85.93;100212.09;4967771;28;20113;-77
2023/04/23 08:51:23;;;;;;;17.55;14.55;;;15.30;99.90;;;14.65;86.28;100207.66;4967923;28;20034;-78
2023/04/23 08:53:55;;;;;;;20.63;14.43;;;15.50;99.90;;;14.63;86.32;100209.56;4974306;28;20034;-77
2023/04/23 08:56:21;;;;;;;20.10;14.57;;;15.40;99.90;;;14.59;86.94;100216.03;4967521;28;20105;-77
2023/04/23 08:58:48;;;;;;;18.27;14.90;;;15.40;99.90;;;14.53;86.91;100212.81;4991195;28;20042;-76
2023/04/23 09:01:16;;;;;;;21.73;15.40;;;15.40;99.90;;;14.44;87.39;100220.59;4979839;28;20046;-76
2023/04/23 09:03:42;;;;;;;23.38;16.05;;;15.30;99.90;;;14.31;88.13;100225.91;4927452;28;20041;-77
2023/04/23 09:06:09;;;;;;;23.67;16.90;;;15.20;99.90;;;14.18;88.75;100230.38;4959503;28;20034;-76
2023/04/23 09:08:35;;;;;;;21.15;16.15;;;15.10;99.90;;;14.04;90.09;100223.34;4967803;28;20060;-76
2023/04/23 09:11:03;;;;;;;23.83;17.92;;;15.00;99.90;;;14.02;90.53;100226.13;4992125;28;20054;-76
2023/04/23 09:13:33;;;;;;;25.60;17.55;;;15.00;99.90;;;13.96;91.41;100223.91;4966930;28;20034;-77
2023/04/23 09:15:59;;;;;;;23.10;17.83;;;14.90;99.90;;;13.95;91.53;100224.84;4982444;28;20040;-76
2023/04/23 09:18:25;;;;;;;25.85;18.25;;;14.90;99.90;;;13.95;92.53;100227.50;4965499;28;20034;-77
2023/04/23 09:20:56;;;;;;;24.88;18.70;;;14.90;99.90;;;14.00;92.69;100225.41;4951868;28;20654;-77
2023/04/23 09:23:26;;;;;;;25.92;19.00;;;14.90;99.90;;;13.97;93.05;100233.53;4974831;28;20034;-76
2023/04/23 09:25:55;;;;;;;25.23;17.83;;;14.90;99.90;;;13.93;93.61;100238.19;4987752;28;20045;-77
2023/04/23 09:28:56;;;;;;;29.40;18.27;;;14.80;99.90;;;13.87;94.74;100243.91;4981304;28;20038;-76
2023/04/23 09:31:26;;;;;;;20.25;14.63;;;14.80;99.90;;;13.81;95.64;100243.47;4962468;28;20709;-76
2023/04/23 09:33:53;;;;;;;14.80;10.05;;;14.70;99.90;;;13.67;96.08;100258.50;4990128;28;20034;-76
2023/04/23 09:36:27;;;;;;;5.15;3.20;;;14.30;99.90;;;12.65;95.71;100266.78;4955293;28;20739;-77
2023/04/23 09:38:57;;;;;;;2.80;2.10;;;13.80;99.90;;;12.13;96.50;100263.88;4968516;28;20068;-76
2023/04/23 09:41:26;;;;;;;6.32;3.28;;;13.50;99.90;;;11.87;98.81;100272.38;4974255;28;20027;-76
2023/04/23 09:44:01;;;;;;;4.55;3.10;;;13.20;99.90;;;11.65;100.00;100266.66;4971818;28;20042;-76
2023/04/23 09:46:43;;;;;;;5.90;4.28;;;13.00;99.90;;;11.58;100.00;100282.00;4965842;28;20531;-76
2023/04/23 09:49:19;;;;;;;4.90;4.03;;;12.90;99.90;;;11.54;100.00;100288.38;4986559;28;20039;-77
2023/04/23 09:51:51;;;;;;;4.90;3.75;;;12.70;99.90;;;11.53;100.00;100293.72;4991061;28;20042;-76
2023/04/23 09:54:27;;;;;;;4.18;3.00;;;12.80;99.90;;;11.64;100.00;100297.47;5004394;28;20581;-76
2023/04/23 09:57:00;;;;;;;5.28;3.97;;;12.70;99.90;;;11.54;100.00;100284.91;4986115;28;20117;-77
2023/04/23 09:59:30;;;;;;;6.53;3.80;;;12.70;99.90;;;11.47;100.00;100293.16;4922941;28;20038;-77
2023/04/23 10:02:05;;;;;;;6.57;5.60;;;12.60;99.90;;;11.49;100.00;100290.44;4990592;28;20164;-76
2023/04/23 10:04:33;;;;;;;6.53;4.38;;;12.70;99.90;;;11.50;100.00;100292.13;4958200;28;20053;-77
2023/04/23 10:07:07;;;;;;;7.00;4.68;;;12.70;99.90;;;11.57;100.00;100300.53;4968389;28;20621;-77